Pagrindinis puslapis
METAR-TAF:

METAR-TAF

Oro uostai :

Midvėjaus, Jungtinės Amerikos Valstijos

platuma: 28-13N, ilguma: 177-22W, Aukštis: 4 m

Dabartinis oras

Ataskaita buvo paskelbta 32 minutes, ne 01:56 UTC
Vėjas 21 kt iš Pietvakarių su gūsio iki 26 kt
Temperatūra 23°C
Drėgmė 69%
Slėgis 1014 hPa
Matomumas: 16.1 km
Mažai debesys ne aukštis 3200 ft
Su prošvaistėmis ne aukštis 4200 ft
Apsiniaukę ne aukštis 5000 ft

METAR: PMDY 260156Z AUTO 23021G26KT 10SM FEW032 BKN042 OVC050 23/17 A2995 RMK AO2 PK WND 24028/0114 SLP139 T02280172

Laikas: 16:28 (02:28 UTC)

Prognozė

Ataskaita buvo paskelbta 2 valandos ir 55 minutes, ne 23:33 UTC
Prognozė galioja nuo 26 metu 00 UTC su 26 metu 24 UTC
Vėjas 18 kt iš Vakarų/Pietvakarių
Matomumas: 10 km
Išsisklaidę debesys ne aukštis 2000 ft
Su prošvaistėmis ne aukštis 4500 ft
Liūtis kaimynystėje
Nuo 26 metu 0900 UTC
Vėjas 10 kt iš Vakarų
Matomumas: 10 km
Išsisklaidę debesys ne aukštis 2000 ft
Su prošvaistėmis ne aukštis 4000 ft

TAF: PMDY 252333Z 2600/2624 24018KT P6SM VCSH SCT020 BKN045 FM260900 28010KT P6SM SCT020 BKN040

Orai ataskaitas ir orų prognozės (METAR, TAF).

turimą stotys yra geltonos ir raudonos taškus žemėlapyje.

Perkelti pele per norėdami pamatyti stoties vardą.

Tada spustelėkite, norėdami matyti oro stebėjimo ir prognozės.

Norėdami pakeisti žemėlapį: spustelėkite ant žalios mygtukų su juodo kryžiaus žemyn,; žalią mygtuką su brūkšneliu, jei norite nutolinti; arba žalių rodyklių gretimoms žemėlapius.


METAR-TAF: